createdAt,value
2018-07-13T00:00:06.088Z,12.60
2018-07-13T00:01:06.078Z,11.40
2018-07-13T00:02:06.070Z,9.90
2018-07-13T00:03:06.071Z,9.10
2018-07-13T00:04:06.057Z,10.20
2018-07-13T00:05:06.032Z,9.30
2018-07-13T00:06:06.022Z,14.30
2018-07-13T00:07:06.011Z,9.90
2018-07-13T00:08:06.016Z,11.40
2018-07-13T00:09:05.990Z,11.60
2018-07-13T00:10:05.980Z,13.50
2018-07-13T00:11:05.972Z,12.10
2018-07-13T00:12:05.958Z,11.60
2018-07-13T00:13:05.963Z,11.60
2018-07-13T00:14:05.936Z,12.70
2018-07-13T00:15:05.928Z,8.90
2018-07-13T00:16:05.940Z,8.80
2018-07-13T00:17:05.908Z,11.90
2018-07-13T00:18:05.893Z,10.10
2018-07-13T00:19:05.883Z,10.40
2018-07-13T00:20:05.875Z,11.90
2018-07-13T00:21:05.865Z,10.60
2018-07-13T00:22:05.867Z,12.00
2018-07-13T00:23:05.841Z,8.10
2018-07-13T00:24:05.833Z,10.90
2018-07-13T00:25:05.857Z,8.50
2018-07-13T00:26:05.813Z,10.70
2018-07-13T00:27:05.798Z,10.40
2018-07-13T00:28:05.787Z,12.90
2018-07-13T00:29:05.775Z,9.80
2018-07-13T00:30:05.765Z,10.30
2018-07-13T00:31:05.771Z,11.60
2018-07-13T00:32:05.743Z,14.20
2018-07-13T00:33:05.734Z,14.80
2018-07-13T00:34:05.725Z,13.90
2018-07-13T00:35:05.713Z,11.60
2018-07-13T00:36:05.715Z,10.30
2018-07-13T00:37:05.694Z,13.40
2018-07-13T00:38:05.681Z,10.30
2018-07-13T00:39:05.672Z,11.20
2018-07-13T00:40:05.662Z,12.30
2018-07-13T00:41:05.667Z,13.10
2018-07-13T00:42:05.640Z,8.30
2018-07-13T00:43:05.629Z,11.10
2018-07-13T00:44:05.632Z,10.50
2018-07-13T00:45:05.605Z,13.00
2018-07-13T00:46:05.595Z,8.30
2018-07-13T00:47:05.585Z,12.00
2018-07-13T00:48:05.594Z,11.40
2018-07-13T00:49:05.567Z,11.30
2018-07-13T00:50:05.574Z,13.40
2018-07-13T00:51:05.543Z,13.20
2018-07-13T00:52:05.532Z,12.90
2018-07-13T00:53:05.522Z,10.60
2018-07-13T00:54:05.512Z,13.30
2018-07-13T00:55:05.502Z,10.90
2018-07-13T00:56:05.507Z,11.30
2018-07-13T00:57:05.478Z,14.90
2018-07-13T00:58:05.469Z,11.10
2018-07-13T00:59:05.474Z,11.80
2018-07-13T01:00:05.469Z,14.40
2018-07-13T01:01:05.436Z,13.30
2018-07-13T01:02:05.427Z,14.90
2018-07-13T01:03:05.418Z,15.70
2018-07-13T01:04:05.404Z,15.20
2018-07-13T01:05:05.393Z,16.50
2018-07-13T01:06:05.404Z,13.00
2018-07-13T01:07:05.372Z,15.30
2018-07-13T01:08:05.361Z,14.40
2018-07-13T01:09:05.351Z,19.10
2018-07-13T01:10:05.342Z,18.40
2018-07-13T01:11:05.331Z,20.00
2018-07-13T01:12:05.335Z,17.30
2018-07-13T01:13:05.310Z,20.50
2018-07-13T01:14:05.297Z,22.50
2018-07-13T01:15:05.288Z,23.40
2018-07-13T01:16:05.294Z,25.90
2018-07-13T01:17:05.267Z,18.70
2018-07-13T01:18:05.259Z,25.20
2018-07-13T01:19:05.246Z,22.90
2018-07-13T01:20:05.235Z,22.20
2018-07-13T01:21:05.223Z,22.70
2018-07-13T01:22:05.225Z,20.80
2018-07-13T01:23:05.199Z,20.50
2018-07-13T01:24:05.191Z,20.80
2018-07-13T01:25:05.194Z,22.30
2018-07-13T01:26:05.171Z,19.60
2018-07-13T01:27:05.180Z,23.10
2018-07-13T01:28:05.148Z,19.20
2018-07-13T01:29:05.134Z,19.60
2018-07-13T01:30:05.123Z,21.10
2018-07-13T01:31:05.117Z,21.50
2018-07-13T01:32:05.107Z,24.00
2018-07-13T01:33:05.107Z,21.20
2018-07-13T01:34:05.084Z,19.30
2018-07-13T01:35:05.081Z,21.20
2018-07-13T01:36:05.062Z,24.00
2018-07-13T01:37:05.053Z,21.00
2018-07-13T01:38:05.064Z,19.80
2018-07-13T01:39:05.032Z,22.30
2018-07-13T01:40:05.022Z,23.10
2018-07-13T01:41:05.010Z,24.70
2018-07-13T01:42:04.998Z,26.20
2018-07-13T01:43:04.990Z,24.30
2018-07-13T01:44:04.997Z,23.60
2018-07-13T01:45:04.967Z,27.60
2018-07-13T01:46:04.955Z,26.10
2018-07-13T01:47:04.943Z,24.40
2018-07-13T01:48:04.932Z,24.40
2018-07-13T01:49:04.922Z,29.20
2018-07-13T01:50:04.926Z,27.30
2018-07-13T01:51:04.900Z,26.70
2018-07-13T01:52:04.892Z,31.80
2018-07-13T01:53:04.879Z,36.90
2018-07-13T01:54:04.869Z,37.10
2018-07-13T01:55:04.873Z,35.70
2018-07-13T01:56:04.859Z,38.60
2018-07-13T01:57:04.843Z,41.90
2018-07-13T01:58:04.825Z,38.80
2018-07-13T01:59:04.820Z,40.90
2018-07-13T02:00:04.820Z,44.50
2018-07-13T02:01:04.795Z,54.80
2018-07-13T02:02:04.785Z,41.70
2018-07-13T02:03:04.772Z,46.20
2018-07-13T02:04:04.761Z,45.60
2018-07-13T02:05:04.767Z,45.80
2018-07-13T02:06:04.741Z,48.70
2018-07-13T02:07:04.730Z,44.90
2018-07-13T02:08:04.717Z,46.00
2018-07-13T02:09:04.713Z,50.00
2018-07-13T02:10:04.737Z,45.50
2018-07-13T02:11:04.685Z,42.90
2018-07-13T02:12:04.678Z,44.40
2018-07-13T02:13:04.664Z,45.90
2018-07-13T02:14:04.653Z,47.60
2018-07-13T02:15:04.643Z,46.10
2018-07-13T02:16:04.675Z,42.40
2018-07-13T02:17:04.624Z,42.60
2018-07-13T02:18:04.610Z,41.90
2018-07-13T02:19:04.600Z,43.80
2018-07-13T02:20:04.590Z,43.20
2018-07-13T02:21:04.579Z,39.10
2018-07-13T02:22:04.583Z,39.50
2018-07-13T02:23:04.573Z,39.50
2018-07-13T02:24:04.548Z,39.10
2018-07-13T02:25:04.544Z,36.20
2018-07-13T02:26:04.548Z,37.20
2018-07-13T02:27:04.516Z,39.10
2018-07-13T02:28:04.506Z,38.90
2018-07-13T02:29:04.498Z,40.50
2018-07-13T02:30:04.489Z,37.90
2018-07-13T02:31:04.476Z,38.30
2018-07-13T02:32:04.490Z,43.00
2018-07-13T02:33:04.452Z,41.00
2018-07-13T02:34:04.445Z,38.40
2018-07-13T02:35:04.430Z,39.50
2018-07-13T02:36:04.422Z,38.30
2018-07-13T02:37:04.409Z,38.30
2018-07-13T02:38:04.419Z,35.00
2018-07-13T02:39:04.459Z,37.60
2018-07-13T02:40:04.378Z,36.90
2018-07-13T02:41:04.367Z,35.10
2018-07-13T02:42:04.359Z,38.90
2018-07-13T02:43:04.348Z,36.90
2018-07-13T02:44:04.372Z,34.80
2018-07-13T02:45:04.327Z,39.00
2018-07-13T02:46:04.344Z,40.20
2018-07-13T02:47:04.311Z,40.80
2018-07-13T02:48:04.297Z,35.90
2018-07-13T02:49:04.286Z,36.50
2018-07-13T02:50:04.288Z,41.50
2018-07-13T02:51:04.265Z,37.60
2018-07-13T02:52:04.253Z,45.20
2018-07-13T02:53:04.243Z,43.10
2018-07-13T02:54:04.232Z,36.60
2018-07-13T02:55:04.239Z,41.10
2018-07-13T02:56:04.208Z,35.40
2018-07-13T02:57:04.201Z,35.70
2018-07-13T02:58:04.187Z,35.90
2018-07-13T02:59:04.176Z,39.40
2018-07-13T03:00:04.184Z,44.90
2018-07-13T03:01:04.173Z,36.70
2018-07-13T03:02:04.148Z,42.80
2018-07-13T03:03:04.137Z,36.20
2018-07-13T03:04:04.127Z,34.00
2018-07-13T03:05:04.114Z,33.80
2018-07-13T03:06:04.107Z,34.70
2018-07-13T03:07:04.108Z,35.80
2018-07-13T03:08:04.082Z,38.90
2018-07-13T03:09:04.075Z,29.40
2018-07-13T03:10:04.063Z,34.20
2018-07-13T03:11:04.066Z,33.80
2018-07-13T03:12:04.048Z,34.20
2018-07-13T03:13:04.030Z,36.20
2018-07-13T03:14:04.018Z,36.20
2018-07-13T03:15:04.011Z,36.00
2018-07-13T03:16:04.012Z,38.70
2018-07-13T03:17:03.986Z,38.00
2018-07-13T03:18:04.019Z,40.40
2018-07-13T03:19:03.971Z,37.20
2018-07-13T03:20:03.958Z,41.60
2018-07-13T03:21:03.944Z,43.30
2018-07-13T03:22:03.999Z,36.50
2018-07-13T03:23:03.929Z,41.00
2018-07-13T03:24:03.933Z,38.20
2018-07-13T03:25:03.909Z,41.00
2018-07-13T03:26:03.893Z,38.60
2018-07-13T03:27:03.879Z,41.40
2018-07-13T03:28:03.869Z,38.30
2018-07-13T03:29:03.858Z,45.20
2018-07-13T03:30:03.864Z,46.90
2018-07-13T03:31:03.840Z,42.30
2018-07-13T03:32:03.827Z,37.10
2018-07-13T03:33:03.814Z,42.30
2018-07-13T03:34:03.816Z,40.90
2018-07-13T03:35:03.792Z,37.90
2018-07-13T03:36:03.806Z,32.80
2018-07-13T03:37:03.773Z,37.50
2018-07-13T03:38:03.761Z,40.40
2018-07-13T03:39:03.749Z,40.20
2018-07-13T03:40:03.738Z,46.20
2018-07-13T03:41:03.729Z,38.50
2018-07-13T03:42:03.732Z,42.20
2018-07-13T03:43:03.709Z,42.80
2018-07-13T03:44:03.756Z,45.60
2018-07-13T03:45:03.687Z,38.20
2018-07-13T03:46:03.674Z,40.50
2018-07-13T03:47:03.668Z,37.40
2018-07-13T03:48:03.680Z,37.80
2018-07-13T03:49:03.649Z,38.40
2018-07-13T03:50:03.633Z,39.90
2018-07-13T03:51:03.623Z,41.40
2018-07-13T03:52:03.611Z,42.60
2018-07-13T03:53:03.606Z,39.00
2018-07-13T03:54:03.614Z,42.10
2018-07-13T03:55:03.580Z,41.90
2018-07-13T03:56:03.586Z,39.80
2018-07-13T03:57:03.559Z,40.50
2018-07-13T03:58:03.551Z,47.40
2018-07-13T03:59:03.541Z,41.20
2018-07-13T04:00:03.547Z,40.90
2018-07-13T04:01:03.516Z,38.60
2018-07-13T04:02:03.509Z,43.10
2018-07-13T04:03:03.496Z,42.60
2018-07-13T04:04:03.488Z,41.30
2018-07-13T04:05:03.484Z,42.10
2018-07-13T04:06:03.486Z,43.60
2018-07-13T04:07:03.499Z,49.30
2018-07-13T04:08:03.448Z,45.10
2018-07-13T04:09:03.433Z,44.20
2018-07-13T04:10:03.423Z,46.40
2018-07-13T04:11:03.434Z,44.30
2018-07-13T04:12:03.404Z,43.60
2018-07-13T04:13:03.393Z,45.80
2018-07-13T04:14:03.381Z,49.40
2018-07-13T04:15:03.375Z,55.90
2018-07-13T04:16:03.364Z,54.90
2018-07-13T04:17:03.363Z,48.80
2018-07-13T04:18:03.339Z,52.10
2018-07-13T04:19:03.325Z,49.30
2018-07-13T04:20:03.319Z,52.00
2018-07-13T04:21:03.304Z,50.80
2018-07-13T04:22:03.308Z,48.50
2018-07-13T04:23:03.281Z,48.80
2018-07-13T04:24:03.270Z,52.40
2018-07-13T04:25:03.263Z,49.90
2018-07-13T04:26:03.271Z,49.20
2018-07-13T04:27:03.241Z,49.10
2018-07-13T04:28:03.228Z,50.60
2018-07-13T04:29:03.218Z,43.00
2018-07-13T04:30:03.208Z,46.00
2018-07-13T04:31:03.193Z,47.20
2018-07-13T04:32:03.199Z,48.80
2018-07-13T04:33:03.175Z,49.80
2018-07-13T04:34:03.162Z,45.00
2018-07-13T04:35:03.167Z,47.40
2018-07-13T04:36:03.141Z,48.00
2018-07-13T04:37:03.133Z,45.90
2018-07-13T04:38:03.121Z,47.40
2018-07-13T04:39:03.123Z,43.10
2018-07-13T04:40:03.101Z,48.60
2018-07-13T04:41:03.162Z,41.90
2018-07-13T04:42:03.077Z,44.80
2018-07-13T04:43:03.068Z,45.50
2018-07-13T04:44:03.095Z,43.70
2018-07-13T04:45:03.045Z,42.30
2018-07-13T04:46:03.037Z,47.10
2018-07-13T04:47:03.026Z,47.40
2018-07-13T04:48:03.013Z,49.20
2018-07-13T04:49:03.006Z,45.20
2018-07-13T04:50:03.044Z,43.30
2018-07-13T04:51:02.983Z,42.70
2018-07-13T04:52:02.971Z,39.30
2018-07-13T04:53:02.960Z,40.70
2018-07-13T04:54:02.966Z,40.00
2018-07-13T04:55:02.939Z,43.80
2018-07-13T04:56:02.926Z,41.20
2018-07-13T04:57:02.915Z,45.90
2018-07-13T04:58:02.907Z,47.30
2018-07-13T04:59:02.896Z,42.00
2018-07-13T05:00:02.893Z,44.30
2018-07-13T05:01:02.871Z,40.80
2018-07-13T05:02:02.875Z,45.10
2018-07-13T05:03:02.850Z,39.40
2018-07-13T05:04:02.840Z,44.30
2018-07-13T05:05:02.841Z,39.30
2018-07-13T05:06:02.821Z,39.90
2018-07-13T05:07:02.836Z,41.40
2018-07-13T05:08:02.801Z,41.00
2018-07-13T05:09:02.802Z,37.90
2018-07-13T05:10:02.778Z,33.00
2018-07-13T05:11:02.764Z,39.50
2018-07-13T05:12:02.757Z,41.60
2018-07-13T05:13:02.768Z,37.40
2018-07-13T05:14:02.729Z,36.40
2018-07-13T05:15:02.718Z,38.40
2018-07-13T05:16:02.708Z,37.30
2018-07-13T05:17:02.695Z,33.20
2018-07-13T05:18:02.687Z,34.50
2018-07-13T05:19:02.706Z,34.50
2018-07-13T05:20:02.665Z,35.00
2018-07-13T05:21:02.652Z,30.40
2018-07-13T05:22:02.640Z,29.10
2018-07-13T05:23:02.629Z,32.40
2018-07-13T05:24:02.623Z,30.60
2018-07-13T05:25:02.623Z,31.60
2018-07-13T05:26:02.597Z,31.40
2018-07-13T05:27:02.620Z,33.00
2018-07-13T05:28:02.572Z,30.40
2018-07-13T05:29:02.561Z,33.80
2018-07-13T05:30:02.560Z,28.60
2018-07-13T05:31:02.559Z,29.60
2018-07-13T05:32:02.527Z,29.50
2018-07-13T05:33:02.517Z,28.00
2018-07-13T05:34:02.511Z,28.40
2018-07-13T05:35:02.499Z,28.70
2018-07-13T05:36:02.487Z,31.40
2018-07-13T05:37:02.484Z,28.40
2018-07-13T05:38:02.466Z,32.00
2018-07-13T05:39:02.451Z,29.30
2018-07-13T05:40:02.452Z,24.80
2018-07-13T05:41:02.431Z,27.00
2018-07-13T05:42:02.420Z,23.50
2018-07-13T05:43:02.407Z,29.40
2018-07-13T05:44:02.394Z,29.60
2018-07-13T05:45:02.400Z,30.60
2018-07-13T05:46:02.375Z,29.50
2018-07-13T05:47:02.363Z,28.00
2018-07-13T05:48:02.355Z,31.00
2018-07-13T05:49:02.344Z,25.40
2018-07-13T05:50:02.343Z,27.40
2018-07-13T05:51:02.324Z,29.50
2018-07-13T05:52:02.308Z,28.40
2018-07-13T05:53:02.303Z,25.20
2018-07-13T05:54:02.311Z,28.40
2018-07-13T05:55:02.279Z,26.30
2018-07-13T05:56:02.264Z,28.00
2018-07-13T05:57:02.255Z,28.00
2018-07-13T05:58:02.245Z,28.80
2018-07-13T05:59:02.238Z,29.30
2018-07-13T06:00:02.236Z,30.80
2018-07-13T06:01:02.210Z,30.10
2018-07-13T06:02:02.202Z,29.30
2018-07-13T06:03:02.189Z,30.50
2018-07-13T06:04:02.307Z,27.90
2018-07-13T06:05:02.171Z,29.80
2018-07-13T06:06:02.164Z,27.20
2018-07-13T06:07:02.163Z,29.40
2018-07-13T06:08:02.136Z,28.00
2018-07-13T06:09:02.126Z,31.40
2018-07-13T06:10:02.149Z,30.30
2018-07-13T06:11:02.119Z,30.80
2018-07-13T06:12:02.134Z,31.20
2018-07-13T06:13:02.081Z,32.30
2018-07-13T06:14:02.072Z,33.80
2018-07-13T06:15:02.112Z,30.90
2018-07-13T06:16:02.048Z,32.70
2018-07-13T06:17:02.040Z,36.30
2018-07-13T06:18:02.064Z,29.10
2018-07-13T06:19:02.018Z,29.70
2018-07-13T06:20:02.008Z,30.30
2018-07-13T06:21:01.999Z,31.60
2018-07-13T06:22:02.008Z,29.90
2018-07-13T06:23:01.980Z,29.40
2018-07-13T06:24:01.966Z,31.00
2018-07-13T06:25:01.972Z,28.10
2018-07-13T06:26:01.942Z,30.90
2018-07-13T06:27:01.935Z,31.00
2018-07-13T06:28:01.929Z,32.30
2018-07-13T06:29:01.910Z,32.60
2018-07-13T06:30:01.921Z,30.30
2018-07-13T06:31:01.888Z,28.60
2018-07-13T06:32:01.914Z,30.50
2018-07-13T06:33:01.870Z,31.80
2018-07-13T06:34:01.856Z,34.90
2018-07-13T06:35:01.848Z,33.80
2018-07-13T06:36:01.837Z,27.90
2018-07-13T06:37:01.825Z,34.60
2018-07-13T06:38:01.828Z,34.20
2018-07-13T06:39:01.802Z,30.50
2018-07-13T06:40:01.794Z,31.50
2018-07-13T06:41:01.781Z,32.60
2018-07-13T06:42:01.779Z,32.20
2018-07-13T06:43:01.760Z,31.60
2018-07-13T06:44:01.748Z,33.00
2018-07-13T06:45:01.741Z,29.50
2018-07-13T06:46:01.729Z,27.00
2018-07-13T06:47:01.729Z,28.00
2018-07-13T06:48:01.708Z,30.30
2018-07-13T06:49:01.697Z,29.60
2018-07-13T06:50:01.684Z,29.10
2018-07-13T06:51:01.678Z,29.40
2018-07-13T06:52:01.678Z,26.60
2018-07-13T06:53:01.651Z,34.50
2018-07-13T06:54:01.640Z,26.80
2018-07-13T06:55:01.632Z,30.30
2018-07-13T06:56:01.620Z,28.80
2018-07-13T06:57:01.611Z,30.90
2018-07-13T06:58:01.610Z,30.00
2018-07-13T06:59:01.591Z,28.40
2018-07-13T07:00:01.578Z,30.10
2018-07-13T07:01:01.565Z,28.80
2018-07-13T07:02:01.572Z,33.10
2018-07-13T07:03:01.544Z,31.20
2018-07-13T07:04:01.536Z,27.40
2018-07-13T07:05:01.522Z,28.80
2018-07-13T07:06:01.515Z,29.40
2018-07-13T07:07:01.500Z,26.70
2018-07-13T07:08:01.506Z,26.90
2018-07-13T07:09:01.479Z,29.20
2018-07-13T07:10:01.471Z,29.40
2018-07-13T07:11:01.456Z,28.00
2018-07-13T07:12:01.448Z,30.90
2018-07-13T07:13:01.436Z,27.70
2018-07-13T07:14:01.449Z,28.20
2018-07-13T07:15:01.417Z,26.10
2018-07-13T07:16:01.405Z,27.20
2018-07-13T07:17:01.391Z,23.80
2018-07-13T07:18:01.385Z,26.20
2018-07-13T07:19:01.375Z,29.60
2018-07-13T07:20:01.380Z,30.80
2018-07-13T07:21:01.350Z,27.20
2018-07-13T07:22:01.341Z,29.00
2018-07-13T07:23:01.333Z,29.00
2018-07-13T07:24:01.320Z,26.50
2018-07-13T07:25:01.314Z,29.20
2018-07-13T07:26:01.309Z,25.40
2018-07-13T07:27:01.285Z,32.50
2018-07-13T07:28:01.277Z,29.50
2018-07-13T07:29:01.265Z,29.70
2018-07-13T07:30:01.262Z,33.00
2018-07-13T07:31:01.262Z,32.40
2018-07-13T07:32:01.234Z,35.80
2018-07-13T07:33:01.222Z,29.70
2018-07-13T07:34:01.212Z,32.40
2018-07-13T07:35:01.199Z,29.80
2018-07-13T07:36:01.209Z,32.40
2018-07-13T07:37:01.177Z,33.30
2018-07-13T07:38:01.168Z,28.60
2018-07-13T07:39:01.159Z,32.50
2018-07-13T07:40:01.160Z,30.10
2018-07-13T07:41:01.174Z,26.40
2018-07-13T07:42:01.124Z,29.40
2018-07-13T07:43:01.113Z,30.70
2018-07-13T07:44:01.143Z,29.40
2018-07-13T07:45:01.091Z,25.80
2018-07-13T07:46:01.083Z,26.90
2018-07-13T07:47:01.109Z,30.00
2018-07-13T07:48:01.058Z,28.50
2018-07-13T07:49:01.051Z,27.50
2018-07-13T07:50:01.085Z,29.70
2018-07-13T07:51:01.028Z,29.60
2018-07-13T07:52:01.016Z,26.60
2018-07-13T07:53:01.027Z,29.00
2018-07-13T07:54:00.997Z,28.90
2018-07-13T07:55:00.983Z,28.50
2018-07-13T07:56:00.976Z,27.40
2018-07-13T07:57:00.961Z,25.50
2018-07-13T07:58:00.957Z,25.70
2018-07-13T07:59:00.969Z,24.40
2018-07-13T08:00:00.930Z,24.10
2018-07-13T08:01:00.920Z,21.90
2018-07-13T08:02:00.911Z,22.10
2018-07-13T08:03:00.900Z,22.20
2018-07-13T08:04:00.898Z,22.80
2018-07-13T08:05:00.886Z,18.10
2018-07-13T08:06:00.877Z,19.60
2018-07-13T08:07:01.106Z,18.80
2018-07-13T08:08:00.845Z,16.80
2018-07-13T08:09:00.834Z,16.60
2018-07-13T08:10:00.840Z,20.30
2018-07-13T08:11:00.813Z,19.90
2018-07-13T08:12:00.801Z,17.60
2018-07-13T08:13:00.791Z,17.90
2018-07-13T08:14:01.065Z,16.90
2018-07-13T08:15:00.771Z,18.10
2018-07-13T08:16:00.775Z,17.90
2018-07-13T08:17:00.749Z,20.90
2018-07-13T08:18:00.738Z,17.40
2018-07-13T08:19:00.722Z,17.00
2018-07-13T08:20:00.738Z,19.60
2018-07-13T08:21:00.727Z,19.70
2018-07-13T08:22:00.694Z,20.30
2018-07-13T08:23:00.681Z,23.60
2018-07-13T08:24:00.671Z,24.60
2018-07-13T08:25:00.661Z,22.00
2018-07-13T08:26:00.651Z,22.90
2018-07-13T08:27:00.656Z,21.80
2018-07-13T08:28:00.628Z,21.10
2018-07-13T08:29:00.616Z,22.10
2018-07-13T08:30:00.629Z,18.20
2018-07-13T08:31:00.595Z,18.50
2018-07-13T08:32:00.584Z,19.30
2018-07-13T08:33:00.588Z,18.90
2018-07-13T08:34:00.561Z,18.20
2018-07-13T08:35:00.552Z,20.10
2018-07-13T08:36:00.539Z,20.90
2018-07-13T08:37:00.530Z,20.20
2018-07-13T08:38:00.516Z,16.20
2018-07-13T08:39:00.518Z,15.90
2018-07-13T08:40:00.496Z,15.80
2018-07-13T08:41:00.484Z,17.70
2018-07-13T08:42:00.472Z,18.10
2018-07-13T08:43:00.465Z,21.50
2018-07-13T08:44:00.507Z,17.30
2018-07-13T08:45:00.440Z,18.50
2018-07-13T08:46:00.434Z,18.90
2018-07-13T08:47:00.421Z,17.90
2018-07-13T08:48:00.410Z,16.10
2018-07-13T08:49:00.416Z,18.90
2018-07-13T08:50:00.386Z,19.20
2018-07-13T08:51:00.379Z,18.20
2018-07-13T08:52:00.366Z,18.10
2018-07-13T08:53:00.357Z,17.00
2018-07-13T08:54:00.344Z,18.40
2018-07-13T08:55:00.346Z,19.40
2018-07-13T08:56:00.340Z,20.30
2018-07-13T08:57:00.310Z,21.10
2018-07-13T08:58:00.301Z,21.10
2018-07-13T08:59:00.291Z,16.30
2018-07-13T09:00:00.279Z,18.90
2018-07-13T09:01:00.271Z,17.70
2018-07-13T09:02:00.268Z,20.00
2018-07-13T09:03:00.249Z,19.00
2018-07-13T09:04:00.270Z,16.60
2018-07-13T09:05:00.225Z,17.30
2018-07-13T09:06:00.216Z,15.90
2018-07-13T09:07:00.220Z,13.90
2018-07-13T09:08:00.193Z,15.30
2018-07-13T09:09:00.184Z,15.70
2018-07-13T09:10:00.171Z,15.60
2018-07-13T09:11:00.206Z,15.10
2018-07-13T09:12:00.152Z,15.90
2018-07-13T09:13:00.206Z,16.20
2018-07-13T09:14:00.130Z,15.50
2018-07-13T09:15:00.117Z,17.00
2018-07-13T09:16:00.107Z,16.00
2018-07-13T09:17:00.108Z,16.90
2018-07-13T09:18:00.087Z,14.90
2018-07-13T09:19:00.090Z,15.40
2018-07-13T09:20:00.067Z,16.20
2018-07-13T09:21:00.054Z,19.40
2018-07-13T09:22:00.042Z,15.90
2018-07-13T09:23:00.033Z,20.30
2018-07-13T09:24:00.054Z,18.60
2018-07-13T09:25:00.029Z,16.10
2018-07-13T09:25:59.998Z,20.70
2018-07-13T09:26:59.990Z,17.50
2018-07-13T09:27:59.978Z,18.50
2018-07-13T09:28:59.986Z,18.00
2018-07-13T09:29:59.956Z,16.10
2018-07-13T09:30:59.944Z,18.70
2018-07-13T09:31:59.930Z,19.50
2018-07-13T09:32:59.920Z,15.90
2018-07-13T09:33:59.909Z,17.30
2018-07-13T09:34:59.916Z,16.50
2018-07-13T09:35:59.911Z,18.30
2018-07-13T09:36:59.878Z,17.60
2018-07-13T09:37:59.881Z,17.50
2018-07-13T09:38:59.859Z,18.50
2018-07-13T09:39:59.847Z,18.80
2018-07-13T09:40:59.840Z,21.00
2018-07-13T09:41:59.838Z,18.30
2018-07-13T09:42:59.818Z,15.40
2018-07-13T09:43:59.807Z,17.50
2018-07-13T09:44:59.796Z,17.30
2018-07-13T09:45:59.784Z,18.90
2018-07-13T09:46:59.848Z,19.10
2018-07-13T09:47:59.785Z,22.00
2018-07-13T09:48:59.756Z,18.90
2018-07-13T09:49:59.740Z,18.60
2018-07-13T09:50:59.731Z,16.30
2018-07-13T09:51:59.738Z,17.50
2018-07-13T09:52:59.711Z,19.50
2018-07-13T09:53:59.935Z,18.90
2018-07-13T09:54:59.693Z,19.20
2018-07-13T09:55:59.682Z,23.20
2018-07-13T09:56:59.700Z,18.90
2018-07-13T09:57:59.661Z,17.90
2018-07-13T09:58:59.664Z,17.90
2018-07-13T09:59:59.639Z,18.60
2018-07-13T10:00:59.740Z,16.50
2018-07-13T10:01:59.617Z,19.50
2018-07-13T10:02:59.605Z,16.70
2018-07-13T10:03:59.595Z,17.30
2018-07-13T10:04:59.600Z,19.90
2018-07-13T10:05:59.572Z,15.30
2018-07-13T10:06:59.563Z,17.30
2018-07-13T10:07:59.552Z,16.20
2018-07-13T10:08:59.542Z,16.50
2018-07-13T10:09:59.541Z,16.80
2018-07-13T10:10:59.517Z,15.50
2018-07-13T10:11:59.504Z,13.80
2018-07-13T10:12:59.498Z,16.90
2018-07-13T10:13:59.497Z,14.00
2018-07-13T10:14:59.473Z,15.50
2018-07-13T10:15:59.467Z,19.00
2018-07-13T10:16:59.487Z,15.30
2018-07-13T10:17:59.440Z,17.20
2018-07-13T10:18:59.431Z,16.10
2018-07-13T10:19:59.425Z,16.00
2018-07-13T10:20:59.411Z,15.00
2018-07-13T10:21:59.398Z,13.80
2018-07-13T10:22:59.403Z,18.20
2018-07-13T10:23:59.379Z,17.60
2018-07-13T10:24:59.368Z,17.10
2018-07-13T10:25:59.357Z,17.90
2018-07-13T10:26:59.346Z,20.60
2018-07-13T10:27:59.346Z,17.50
2018-07-13T10:28:59.337Z,17.70
2018-07-13T10:29:59.314Z,16.90
2018-07-13T10:30:59.303Z,14.90
2018-07-13T10:31:59.291Z,16.30
2018-07-13T10:32:59.322Z,14.80
2018-07-13T10:33:59.270Z,13.60
2018-07-13T10:34:59.263Z,13.40
2018-07-13T10:35:59.252Z,14.00
2018-07-13T10:36:59.240Z,11.20
2018-07-13T10:37:59.229Z,12.90
2018-07-13T10:38:59.238Z,11.70
2018-07-13T10:39:59.212Z,12.60
2018-07-13T10:40:59.202Z,13.30
2018-07-13T10:41:59.186Z,14.70
2018-07-13T10:42:59.176Z,11.70
2018-07-13T10:43:59.168Z,10.90
2018-07-13T10:44:59.172Z,13.30
2018-07-13T10:45:59.145Z,11.80
2018-07-13T10:46:59.136Z,13.70
2018-07-13T10:47:59.126Z,11.60
2018-07-13T10:48:59.117Z,12.10
2018-07-13T10:49:59.122Z,14.50
2018-07-13T10:50:59.093Z,14.20
2018-07-13T10:51:59.085Z,16.00
2018-07-13T10:52:59.077Z,12.50
2018-07-13T10:53:59.068Z,12.80
2018-07-13T10:54:59.053Z,82.00
2018-07-13T10:55:59.055Z,29.10
2018-07-13T10:56:59.094Z,21.90
2018-07-13T10:57:59.021Z,11.60
2018-07-13T10:58:59.013Z,12.50
2018-07-13T10:59:59.002Z,112.10
2018-07-13T11:00:59.016Z,28.40
2018-07-13T11:01:58.981Z,13.90
2018-07-13T11:02:59.091Z,11.70
2018-07-13T11:03:58.962Z,10.90
2018-07-13T11:04:58.950Z,11.80
2018-07-13T11:05:58.944Z,11.70
2018-07-13T11:06:58.943Z,12.10
2018-07-13T11:07:58.950Z,11.50
2018-07-13T11:08:58.913Z,13.80
2018-07-13T11:09:58.904Z,10.90
2018-07-13T11:10:58.890Z,10.10
2018-07-13T11:11:58.892Z,8.90
2018-07-13T11:12:58.873Z,10.80
2018-07-13T11:13:58.920Z,9.60
2018-07-13T11:14:58.853Z,11.80
2018-07-13T11:15:58.842Z,12.50
2018-07-13T11:16:58.843Z,9.00
2018-07-13T11:17:58.823Z,11.10
2018-07-13T11:18:58.815Z,10.30
2018-07-13T11:19:58.840Z,8.00
2018-07-13T11:20:58.792Z,9.90
2018-07-13T11:21:58.780Z,10.00
2018-07-13T11:22:58.774Z,10.10
2018-07-13T11:23:58.761Z,11.00
2018-07-13T11:24:58.754Z,12.00
2018-07-13T11:25:58.753Z,10.30
2018-07-13T11:26:58.750Z,8.20
2018-07-13T11:27:58.725Z,8.00
2018-07-13T11:28:58.721Z,11.40
2018-07-13T11:29:58.705Z,11.60
2018-07-13T11:30:58.694Z,13.20
2018-07-13T11:31:58.683Z,11.30
2018-07-13T11:32:58.685Z,12.20
2018-07-13T11:33:58.663Z,10.50
2018-07-13T11:34:58.651Z,10.80
2018-07-13T11:35:58.640Z,10.80
2018-07-13T11:36:58.735Z,10.10
2018-07-13T11:37:58.636Z,10.60
2018-07-13T11:38:58.612Z,9.70
2018-07-13T11:39:58.603Z,11.80
2018-07-13T11:40:58.590Z,12.90
2018-07-13T11:41:58.580Z,11.30
2018-07-13T11:42:58.612Z,12.20
2018-07-13T11:43:58.563Z,12.20
2018-07-13T11:44:58.552Z,10.20
2018-07-13T11:45:58.543Z,10.70
2018-07-13T11:46:58.550Z,10.90
2018-07-13T11:47:58.518Z,9.50
2018-07-13T11:48:58.526Z,34.40
2018-07-13T11:49:58.501Z,12.60
2018-07-13T11:50:58.493Z,14.10
2018-07-13T11:51:58.486Z,12.20
2018-07-13T11:52:58.469Z,15.30
2018-07-13T11:53:58.486Z,27.40
2018-07-13T11:54:58.449Z,30.70
2018-07-13T11:55:58.454Z,16.10
2018-07-13T11:56:58.430Z,11.20
2018-07-13T11:57:58.419Z,13.70
2018-07-13T11:58:58.410Z,10.80
2018-07-13T11:59:58.401Z,13.00
2018-07-13T12:00:58.392Z,10.40
2018-07-13T12:01:58.392Z,9.00
2018-07-13T12:02:58.371Z,11.80
2018-07-13T12:03:58.363Z,9.20
2018-07-13T12:04:58.355Z,14.00
2018-07-13T12:05:58.354Z,11.30
2018-07-13T12:06:58.332Z,33.90
2018-07-13T12:07:58.320Z,13.90
2018-07-13T12:08:58.310Z,11.40
2018-07-13T12:09:58.304Z,12.80
2018-07-13T12:10:58.293Z,9.40
2018-07-13T12:11:58.317Z,17.30
2018-07-13T12:12:58.274Z,11.50
2018-07-13T12:13:58.262Z,10.10
2018-07-13T12:14:58.255Z,8.00
2018-07-13T12:15:58.241Z,10.80
2018-07-13T12:16:58.235Z,11.40
2018-07-13T12:17:58.236Z,10.60
2018-07-13T12:18:58.212Z,11.30
2018-07-13T12:19:58.221Z,9.70
2018-07-13T12:20:58.198Z,9.90
2018-07-13T12:21:58.181Z,7.50
2018-07-13T12:22:58.188Z,8.90
2018-07-13T12:23:58.249Z,8.90
2018-07-13T12:24:58.155Z,8.10
2018-07-13T12:25:58.145Z,9.80
2018-07-13T12:26:58.210Z,8.60
2018-07-13T12:27:58.124Z,9.70
2018-07-13T12:28:58.113Z,12.30
2018-07-13T12:29:58.118Z,9.60
2018-07-13T12:30:58.096Z,10.70
2018-07-13T12:31:58.094Z,13.00
2018-07-13T12:32:58.102Z,9.70
2018-07-13T12:33:58.064Z,12.10
2018-07-13T12:34:58.057Z,9.60
2018-07-13T12:35:58.044Z,11.70
2018-07-13T12:36:58.054Z,9.30
2018-07-13T12:37:58.037Z,10.20
2018-07-13T12:38:58.015Z,8.90
2018-07-13T12:39:58.055Z,9.00
2018-07-13T12:40:57.995Z,9.00
2018-07-13T12:41:57.983Z,8.20
2018-07-13T12:42:57.990Z,7.40
2018-07-13T12:43:57.975Z,8.20
2018-07-13T12:44:57.957Z,8.20
2018-07-13T12:45:57.985Z,9.40
2018-07-13T12:46:57.951Z,8.60
2018-07-13T12:47:57.928Z,8.60
2018-07-13T12:48:57.931Z,5.90
2018-07-13T12:49:57.923Z,11.40
2018-07-13T12:50:57.897Z,8.00
2018-07-13T12:51:57.884Z,10.50
2018-07-13T12:52:57.878Z,7.90
2018-07-13T12:53:57.926Z,9.00